sensor_id;sensor_type;location;lat;lon;timestamp;P1;durP1;ratioP1;P2;durP2;ratioP2
13571;SDS011;6857;53.484;10.216;2023-04-03T00:01:06;4.50;;;1.77;;
13571;SDS011;6857;53.484;10.216;2023-04-03T00:03:32;4.97;;;1.63;;
13571;SDS011;6857;53.484;10.216;2023-04-03T00:05:58;5.77;;;1.70;;
13571;SDS011;6857;53.484;10.216;2023-04-03T00:08:25;5.23;;;2.07;;
13571;SDS011;6857;53.484;10.216;2023-04-03T00:10:50;6.93;;;2.10;;
13571;SDS011;6857;53.484;10.216;2023-04-03T00:13:17;8.00;;;1.90;;
13571;SDS011;6857;53.484;10.216;2023-04-03T00:15:43;6.97;;;2.17;;
13571;SDS011;6857;53.484;10.216;2023-04-03T00:18:09;3.50;;;1.87;;
13571;SDS011;6857;53.484;10.216;2023-04-03T00:20:35;7.37;;;2.90;;
13571;SDS011;6857;53.484;10.216;2023-04-03T00:23:01;6.93;;;1.67;;
13571;SDS011;6857;53.484;10.216;2023-04-03T00:25:27;3.53;;;2.00;;
13571;SDS011;6857;53.484;10.216;2023-04-03T00:27:53;6.23;;;1.83;;
13571;SDS011;6857;53.484;10.216;2023-04-03T00:30:20;4.53;;;2.43;;
13571;SDS011;6857;53.484;10.216;2023-04-03T00:32:47;3.60;;;1.33;;
13571;SDS011;6857;53.484;10.216;2023-04-03T00:35:13;4.90;;;1.53;;
13571;SDS011;6857;53.484;10.216;2023-04-03T00:37:41;6.10;;;1.43;;
13571;SDS011;6857;53.484;10.216;2023-04-03T00:40:07;4.27;;;1.43;;
13571;SDS011;6857;53.484;10.216;2023-04-03T00:42:35;5.07;;;1.73;;
13571;SDS011;6857;53.484;10.216;2023-04-03T00:47:27;6.83;;;2.47;;
13571;SDS011;6857;53.484;10.216;2023-04-03T00:49:53;6.50;;;2.00;;
13571;SDS011;6857;53.484;10.216;2023-04-03T00:52:21;3.27;;;1.90;;
13571;SDS011;6857;53.484;10.216;2023-04-03T00:54:49;6.40;;;1.70;;
13571;SDS011;6857;53.484;10.216;2023-04-03T00:57:15;3.43;;;1.70;;
13571;SDS011;6857;53.484;10.216;2023-04-03T00:59:43;4.57;;;1.50;;
13571;SDS011;6857;53.484;10.216;2023-04-03T01:02:09;4.93;;;1.63;;
13571;SDS011;6857;53.484;10.216;2023-04-03T01:07:08;5.17;;;2.87;;
13571;SDS011;6857;53.484;10.216;2023-04-03T01:09:35;5.67;;;1.77;;
13571;SDS011;6857;53.484;10.216;2023-04-03T01:12:19;5.47;;;1.80;;
13571;SDS011;6857;53.484;10.216;2023-04-03T01:14:45;6.40;;;2.63;;
13571;SDS011;6857;53.484;10.216;2023-04-03T01:17:31;8.67;;;2.83;;
13571;SDS011;6857;53.484;10.216;2023-04-03T01:20:08;4.60;;;3.03;;
13571;SDS011;6857;53.484;10.216;2023-04-03T01:25:12;6.57;;;2.30;;
13571;SDS011;6857;53.484;10.216;2023-04-03T01:27:38;5.50;;;1.50;;
13571;SDS011;6857;53.484;10.216;2023-04-03T01:30:05;4.43;;;1.80;;
13571;SDS011;6857;53.484;10.216;2023-04-03T01:32:31;7.10;;;2.23;;
13571;SDS011;6857;53.484;10.216;2023-04-03T01:34:57;4.07;;;2.37;;
13571;SDS011;6857;53.484;10.216;2023-04-03T01:37:23;4.00;;;2.10;;
13571;SDS011;6857;53.484;10.216;2023-04-03T01:39:49;5.80;;;1.70;;
13571;SDS011;6857;53.484;10.216;2023-04-03T01:42:15;5.30;;;2.00;;
13571;SDS011;6857;53.484;10.216;2023-04-03T01:44:42;4.90;;;1.53;;
13571;SDS011;6857;53.484;10.216;2023-04-03T01:47:07;4.27;;;1.40;;
13571;SDS011;6857;53.484;10.216;2023-04-03T01:49:33;7.37;;;2.80;;
13571;SDS011;6857;53.484;10.216;2023-04-03T01:51:59;4.83;;;2.07;;
13571;SDS011;6857;53.484;10.216;2023-04-03T01:54:25;4.00;;;1.50;;
13571;SDS011;6857;53.484;10.216;2023-04-03T01:56:51;4.13;;;1.70;;
13571;SDS011;6857;53.484;10.216;2023-04-03T01:59:17;3.27;;;1.70;;
13571;SDS011;6857;53.484;10.216;2023-04-03T02:01:44;5.93;;;1.77;;
13571;SDS011;6857;53.484;10.216;2023-04-03T02:04:11;5.57;;;1.80;;
13571;SDS011;6857;53.484;10.216;2023-04-03T02:06:37;4.33;;;1.70;;
13571;SDS011;6857;53.484;10.216;2023-04-03T02:09:03;3.97;;;1.63;;
13571;SDS011;6857;53.484;10.216;2023-04-03T02:11:29;5.13;;;1.87;;
13571;SDS011;6857;53.484;10.216;2023-04-03T02:13:55;5.47;;;1.87;;
13571;SDS011;6857;53.484;10.216;2023-04-03T02:16:21;4.40;;;1.70;;
13571;SDS011;6857;53.484;10.216;2023-04-03T02:18:47;3.00;;;1.50;;
13571;SDS011;6857;53.484;10.216;2023-04-03T02:21:13;5.90;;;1.80;;
13571;SDS011;6857;53.484;10.216;2023-04-03T02:23:39;7.10;;;1.77;;
13571;SDS011;6857;53.484;10.216;2023-04-03T02:26:06;6.23;;;1.50;;
13571;SDS011;6857;53.484;10.216;2023-04-03T02:28:32;6.40;;;1.97;;
13571;SDS011;6857;53.484;10.216;2023-04-03T02:30:58;4.27;;;1.90;;
13571;SDS011;6857;53.484;10.216;2023-04-03T02:33:24;7.43;;;1.90;;
13571;SDS011;6857;53.484;10.216;2023-04-03T02:35:54;3.50;;;1.63;;
13571;SDS011;6857;53.484;10.216;2023-04-03T02:38:20;4.87;;;1.40;;
13571;SDS011;6857;53.484;10.216;2023-04-03T02:40:46;5.20;;;1.83;;
13571;SDS011;6857;53.484;10.216;2023-04-03T02:43:12;3.47;;;1.73;;
13571;SDS011;6857;53.484;10.216;2023-04-03T02:45:38;7.50;;;2.07;;
13571;SDS011;6857;53.484;10.216;2023-04-03T02:48:05;6.57;;;2.50;;
13571;SDS011;6857;53.484;10.216;2023-04-03T02:50:31;4.27;;;1.27;;
13571;SDS011;6857;53.484;10.216;2023-04-03T02:52:57;4.03;;;1.50;;
13571;SDS011;6857;53.484;10.216;2023-04-03T02:55:23;4.10;;;1.50;;
13571;SDS011;6857;53.484;10.216;2023-04-03T02:57:49;5.47;;;1.33;;
13571;SDS011;6857;53.484;10.216;2023-04-03T03:00:15;3.47;;;1.53;;
13571;SDS011;6857;53.484;10.216;2023-04-03T03:02:41;6.30;;;1.70;;
13571;SDS011;6857;53.484;10.216;2023-04-03T03:05:07;4.30;;;1.93;;
13571;SDS011;6857;53.484;10.216;2023-04-03T03:07:33;8.40;;;1.77;;
13571;SDS011;6857;53.484;10.216;2023-04-03T03:09:59;4.83;;;2.00;;
13571;SDS011;6857;53.484;10.216;2023-04-03T03:12:25;5.70;;;1.90;;
13571;SDS011;6857;53.484;10.216;2023-04-03T03:14:51;3.30;;;1.93;;
13571;SDS011;6857;53.484;10.216;2023-04-03T03:17:17;5.13;;;1.50;;
13571;SDS011;6857;53.484;10.216;2023-04-03T03:19:43;5.47;;;1.63;;
13571;SDS011;6857;53.484;10.216;2023-04-03T03:22:10;6.73;;;1.57;;
13571;SDS011;6857;53.484;10.216;2023-04-03T03:24:36;4.07;;;1.80;;
13571;SDS011;6857;53.484;10.216;2023-04-03T03:27:02;4.47;;;1.47;;
13571;SDS011;6857;53.484;10.216;2023-04-03T03:29:28;6.77;;;2.13;;
13571;SDS011;6857;53.484;10.216;2023-04-03T03:31:55;3.53;;;1.50;;
13571;SDS011;6857;53.484;10.216;2023-04-03T03:34:21;4.90;;;1.50;;
13571;SDS011;6857;53.484;10.216;2023-04-03T03:36:47;5.17;;;1.73;;
13571;SDS011;6857;53.484;10.216;2023-04-03T03:39:12;4.57;;;1.53;;
13571;SDS011;6857;53.484;10.216;2023-04-03T03:41:38;5.27;;;1.33;;
13571;SDS011;6857;53.484;10.216;2023-04-03T03:44:04;3.67;;;1.47;;
13571;SDS011;6857;53.484;10.216;2023-04-03T03:46:30;7.43;;;1.80;;
13571;SDS011;6857;53.484;10.216;2023-04-03T03:48:56;6.30;;;2.20;;
13571;SDS011;6857;53.484;10.216;2023-04-03T03:51:22;3.60;;;1.70;;
13571;SDS011;6857;53.484;10.216;2023-04-03T03:53:48;2.80;;;1.27;;
13571;SDS011;6857;53.484;10.216;2023-04-03T03:56:14;8.37;;;1.60;;
13571;SDS011;6857;53.484;10.216;2023-04-03T03:58:40;5.80;;;1.60;;
13571;SDS011;6857;53.484;10.216;2023-04-03T04:01:06;3.97;;;1.40;;
13571;SDS011;6857;53.484;10.216;2023-04-03T04:03:33;5.57;;;1.50;;
13571;SDS011;6857;53.484;10.216;2023-04-03T04:05:59;4.63;;;1.80;;
13571;SDS011;6857;53.484;10.216;2023-04-03T04:08:25;5.27;;;1.23;;
13571;SDS011;6857;53.484;10.216;2023-04-03T04:10:51;5.03;;;1.50;;
13571;SDS011;6857;53.484;10.216;2023-04-03T04:13:17;5.03;;;1.50;;
13571;SDS011;6857;53.484;10.216;2023-04-03T04:15:43;7.93;;;1.50;;
13571;SDS011;6857;53.484;10.216;2023-04-03T04:18:09;6.80;;;2.77;;
13571;SDS011;6857;53.484;10.216;2023-04-03T04:20:35;7.93;;;1.80;;
13571;SDS011;6857;53.484;10.216;2023-04-03T04:23:01;6.50;;;1.73;;
13571;SDS011;6857;53.484;10.216;2023-04-03T04:25:27;4.70;;;1.97;;
13571;SDS011;6857;53.484;10.216;2023-04-03T04:27:53;6.63;;;1.60;;
13571;SDS011;6857;53.484;10.216;2023-04-03T04:30:19;5.60;;;1.87;;
13571;SDS011;6857;53.484;10.216;2023-04-03T04:32:45;3.23;;;1.30;;
13571;SDS011;6857;53.484;10.216;2023-04-03T04:35:11;3.33;;;1.00;;
13571;SDS011;6857;53.484;10.216;2023-04-03T04:37:37;3.83;;;1.63;;
13571;SDS011;6857;53.484;10.216;2023-04-03T04:40:03;2.67;;;1.10;;
13571;SDS011;6857;53.484;10.216;2023-04-03T04:42:29;3.60;;;1.40;;
13571;SDS011;6857;53.484;10.216;2023-04-03T04:44:55;4.47;;;1.53;;
13571;SDS011;6857;53.484;10.216;2023-04-03T04:47:21;2.67;;;1.20;;
13571;SDS011;6857;53.484;10.216;2023-04-03T04:49:47;6.33;;;1.37;;
13571;SDS011;6857;53.484;10.216;2023-04-03T04:52:13;5.53;;;1.80;;
13571;SDS011;6857;53.484;10.216;2023-04-03T04:54:40;4.20;;;1.37;;
13571;SDS011;6857;53.484;10.216;2023-04-03T04:57:06;6.47;;;1.87;;
13571;SDS011;6857;53.484;10.216;2023-04-03T04:59:32;4.40;;;1.60;;
13571;SDS011;6857;53.484;10.216;2023-04-03T05:01:58;4.63;;;1.60;;
13571;SDS011;6857;53.484;10.216;2023-04-03T05:04:24;4.63;;;1.90;;
13571;SDS011;6857;53.484;10.216;2023-04-03T05:06:49;3.70;;;1.50;;
13571;SDS011;6857;53.484;10.216;2023-04-03T05:09:15;3.00;;;1.43;;
13571;SDS011;6857;53.484;10.216;2023-04-03T05:11:41;4.13;;;1.67;;
13571;SDS011;6857;53.484;10.216;2023-04-03T05:14:08;3.50;;;1.50;;
13571;SDS011;6857;53.484;10.216;2023-04-03T05:16:34;6.43;;;1.73;;
13571;SDS011;6857;53.484;10.216;2023-04-03T05:19:00;7.07;;;1.90;;
13571;SDS011;6857;53.484;10.216;2023-04-03T05:21:26;6.47;;;1.70;;
13571;SDS011;6857;53.484;10.216;2023-04-03T05:23:54;4.90;;;1.43;;
13571;SDS011;6857;53.484;10.216;2023-04-03T05:26:20;4.07;;;1.50;;
13571;SDS011;6857;53.484;10.216;2023-04-03T05:28:46;3.70;;;1.40;;
13571;SDS011;6857;53.484;10.216;2023-04-03T05:31:12;3.80;;;1.50;;
13571;SDS011;6857;53.484;10.216;2023-04-03T05:33:38;7.33;;;2.13;;
13571;SDS011;6857;53.484;10.216;2023-04-03T05:36:04;6.13;;;1.83;;
13571;SDS011;6857;53.484;10.216;2023-04-03T05:38:31;5.60;;;1.73;;
13571;SDS011;6857;53.484;10.216;2023-04-03T05:40:57;3.40;;;1.73;;
13571;SDS011;6857;53.484;10.216;2023-04-03T05:43:23;7.97;;;1.80;;
13571;SDS011;6857;53.484;10.216;2023-04-03T05:45:48;6.33;;;1.97;;
13571;SDS011;6857;53.484;10.216;2023-04-03T05:48:14;7.23;;;1.73;;
13571;SDS011;6857;53.484;10.216;2023-04-03T05:50:40;3.00;;;1.40;;
13571;SDS011;6857;53.484;10.216;2023-04-03T05:53:07;10.60;;;1.77;;
13571;SDS011;6857;53.484;10.216;2023-04-03T05:55:39;6.50;;;2.13;;
13571;SDS011;6857;53.484;10.216;2023-04-03T05:58:05;4.50;;;1.70;;
13571;SDS011;6857;53.484;10.216;2023-04-03T06:00:31;8.00;;;2.37;;
13571;SDS011;6857;53.484;10.216;2023-04-03T06:02:57;5.40;;;1.70;;
13571;SDS011;6857;53.484;10.216;2023-04-03T06:05:23;4.53;;;1.70;;
13571;SDS011;6857;53.484;10.216;2023-04-03T06:07:49;4.10;;;1.67;;
13571;SDS011;6857;53.484;10.216;2023-04-03T06:10:15;6.83;;;1.63;;
13571;SDS011;6857;53.484;10.216;2023-04-03T06:12:42;5.63;;;1.80;;
13571;SDS011;6857;53.484;10.216;2023-04-03T06:15:08;5.37;;;1.70;;
13571;SDS011;6857;53.484;10.216;2023-04-03T06:17:35;5.73;;;2.10;;
13571;SDS011;6857;53.484;10.216;2023-04-03T06:20:02;5.30;;;2.50;;
13571;SDS011;6857;53.484;10.216;2023-04-03T06:22:28;2.90;;;1.63;;
13571;SDS011;6857;53.484;10.216;2023-04-03T06:24:55;3.90;;;1.70;;
13571;SDS011;6857;53.484;10.216;2023-04-03T06:27:21;4.63;;;1.53;;
13571;SDS011;6857;53.484;10.216;2023-04-03T06:29:47;4.77;;;2.10;;
13571;SDS011;6857;53.484;10.216;2023-04-03T06:32:14;5.23;;;1.40;;
13571;SDS011;6857;53.484;10.216;2023-04-03T06:34:40;3.13;;;1.63;;
13571;SDS011;6857;53.484;10.216;2023-04-03T06:37:06;2.50;;;1.50;;
13571;SDS011;6857;53.484;10.216;2023-04-03T06:39:35;4.67;;;1.63;;
13571;SDS011;6857;53.484;10.216;2023-04-03T06:42:02;7.20;;;1.67;;
13571;SDS011;6857;53.484;10.216;2023-04-03T06:44:28;5.97;;;1.70;;
13571;SDS011;6857;53.484;10.216;2023-04-03T06:46:54;5.37;;;1.77;;
13571;SDS011;6857;53.484;10.216;2023-04-03T06:49:20;5.40;;;1.83;;
13571;SDS011;6857;53.484;10.216;2023-04-03T06:51:46;4.13;;;1.70;;
13571;SDS011;6857;53.484;10.216;2023-04-03T06:54:12;2.90;;;1.20;;
13571;SDS011;6857;53.484;10.216;2023-04-03T06:56:39;5.13;;;1.53;;
13571;SDS011;6857;53.484;10.216;2023-04-03T06:59:06;5.40;;;1.70;;
13571;SDS011;6857;53.484;10.216;2023-04-03T07:01:34;3.93;;;1.77;;
13571;SDS011;6857;53.484;10.216;2023-04-03T07:04:00;8.03;;;2.20;;
13571;SDS011;6857;53.484;10.216;2023-04-03T07:06:27;4.90;;;1.70;;
13571;SDS011;6857;53.484;10.216;2023-04-03T07:08:53;5.47;;;1.87;;
13571;SDS011;6857;53.484;10.216;2023-04-03T07:11:19;4.77;;;1.30;;
13571;SDS011;6857;53.484;10.216;2023-04-03T07:13:45;4.00;;;1.30;;
13571;SDS011;6857;53.484;10.216;2023-04-03T07:16:11;5.43;;;1.73;;
13571;SDS011;6857;53.484;10.216;2023-04-03T07:18:37;2.80;;;1.33;;
13571;SDS011;6857;53.484;10.216;2023-04-03T07:21:03;4.37;;;1.40;;
13571;SDS011;6857;53.484;10.216;2023-04-03T07:23:30;3.17;;;1.00;;
13571;SDS011;6857;53.484;10.216;2023-04-03T07:25:56;6.70;;;1.50;;
13571;SDS011;6857;53.484;10.216;2023-04-03T07:28:22;3.17;;;1.03;;
13571;SDS011;6857;53.484;10.216;2023-04-03T07:30:49;5.67;;;1.00;;
13571;SDS011;6857;53.484;10.216;2023-04-03T07:33:16;3.80;;;1.20;;
13571;SDS011;6857;53.484;10.216;2023-04-03T07:35:42;3.07;;;1.30;;
13571;SDS011;6857;53.484;10.216;2023-04-03T07:38:08;1.70;;;1.00;;
13571;SDS011;6857;53.484;10.216;2023-04-03T07:40:34;4.70;;;1.20;;
13571;SDS011;6857;53.484;10.216;2023-04-03T07:43:00;3.97;;;1.40;;
13571;SDS011;6857;53.484;10.216;2023-04-03T07:45:27;3.67;;;1.10;;
13571;SDS011;6857;53.484;10.216;2023-04-03T07:47:53;3.73;;;1.57;;
13571;SDS011;6857;53.484;10.216;2023-04-03T07:50:21;4.30;;;1.13;;
13571;SDS011;6857;53.484;10.216;2023-04-03T07:52:47;2.83;;;1.10;;
13571;SDS011;6857;53.484;10.216;2023-04-03T07:55:15;1.93;;;1.00;;
13571;SDS011;6857;53.484;10.216;2023-04-03T07:57:41;3.40;;;1.00;;
13571;SDS011;6857;53.484;10.216;2023-04-03T08:00:07;4.53;;;1.20;;
13571;SDS011;6857;53.484;10.216;2023-04-03T08:02:34;4.00;;;1.23;;
13571;SDS011;6857;53.484;10.216;2023-04-03T08:05:00;3.53;;;1.23;;
13571;SDS011;6857;53.484;10.216;2023-04-03T08:07:26;4.13;;;1.70;;
13571;SDS011;6857;53.484;10.216;2023-04-03T08:09:52;5.70;;;1.67;;
13571;SDS011;6857;53.484;10.216;2023-04-03T08:12:18;3.13;;;1.17;;
13571;SDS011;6857;53.484;10.216;2023-04-03T08:14:44;4.90;;;1.10;;
13571;SDS011;6857;53.484;10.216;2023-04-03T08:17:10;3.20;;;1.20;;
13571;SDS011;6857;53.484;10.216;2023-04-03T08:19:39;3.63;;;1.00;;
13571;SDS011;6857;53.484;10.216;2023-04-03T08:22:05;2.03;;;1.10;;
13571;SDS011;6857;53.484;10.216;2023-04-03T08:24:32;3.10;;;1.00;;
13571;SDS011;6857;53.484;10.216;2023-04-03T08:26:59;7.97;;;1.23;;
13571;SDS011;6857;53.484;10.216;2023-04-03T08:29:25;5.57;;;1.13;;
13571;SDS011;6857;53.484;10.216;2023-04-03T08:31:51;17.70;;;2.23;;
13571;SDS011;6857;53.484;10.216;2023-04-03T08:34:18;11.67;;;1.60;;
13571;SDS011;6857;53.484;10.216;2023-04-03T08:36:44;2.03;;;0.90;;
13571;SDS011;6857;53.484;10.216;2023-04-03T08:39:10;2.47;;;0.70;;
13571;SDS011;6857;53.484;10.216;2023-04-03T08:49:42;2.03;;;0.60;;
13571;SDS011;6857;53.484;10.216;2023-04-03T08:52:11;1.67;;;0.60;;
13571;SDS011;6857;53.484;10.216;2023-04-03T08:55:01;2.27;;;0.80;;
13571;SDS011;6857;53.484;10.216;2023-04-03T08:57:30;1.67;;;0.50;;
13571;SDS011;6857;53.484;10.216;2023-04-03T08:59:58;3.20;;;0.73;;
13571;SDS011;6857;53.484;10.216;2023-04-03T09:02:31;2.13;;;1.00;;
13571;SDS011;6857;53.484;10.216;2023-04-03T09:04:58;3.20;;;0.97;;
13571;SDS011;6857;53.484;10.216;2023-04-03T09:07:33;2.23;;;1.13;;
13571;SDS011;6857;53.484;10.216;2023-04-03T09:10:02;3.80;;;0.80;;
13571;SDS011;6857;53.484;10.216;2023-04-03T09:12:38;2.20;;;0.70;;
13571;SDS011;6857;53.484;10.216;2023-04-03T09:15:18;2.60;;;1.10;;
13571;SDS011;6857;53.484;10.216;2023-04-03T09:20:14;5.67;;;2.90;;
13571;SDS011;6857;53.484;10.216;2023-04-03T09:22:42;6.70;;;4.37;;
13571;SDS011;6857;53.484;10.216;2023-04-03T09:25:17;3.73;;;1.87;;
13571;SDS011;6857;53.484;10.216;2023-04-03T09:27:44;4.10;;;1.17;;
13571;SDS011;6857;53.484;10.216;2023-04-03T09:30:17;1.73;;;0.87;;
13571;SDS011;6857;53.484;10.216;2023-04-03T09:32:44;5.30;;;1.20;;
13571;SDS011;6857;53.484;10.216;2023-04-03T09:35:27;2.53;;;0.73;;
13571;SDS011;6857;53.484;10.216;2023-04-03T09:37:55;1.60;;;0.80;;
13571;SDS011;6857;53.484;10.216;2023-04-03T09:42:51;1.40;;;0.80;;
13571;SDS011;6857;53.484;10.216;2023-04-03T09:45:22;3.13;;;0.90;;
13571;SDS011;6857;53.484;10.216;2023-04-03T09:47:49;1.70;;;0.80;;
13571;SDS011;6857;53.484;10.216;2023-04-03T09:50:29;4.23;;;0.93;;
13571;SDS011;6857;53.484;10.216;2023-04-03T09:52:56;1.97;;;0.77;;
13571;SDS011;6857;53.484;10.216;2023-04-03T09:55:23;2.20;;;0.70;;
13571;SDS011;6857;53.484;10.216;2023-04-03T09:57:54;2.57;;;0.90;;
13571;SDS011;6857;53.484;10.216;2023-04-03T10:00:26;2.37;;;0.70;;
13571;SDS011;6857;53.484;10.216;2023-04-03T10:02:56;1.90;;;0.60;;
13571;SDS011;6857;53.484;10.216;2023-04-03T10:05:36;1.57;;;0.80;;
13571;SDS011;6857;53.484;10.216;2023-04-03T10:08:09;3.77;;;0.77;;
13571;SDS011;6857;53.484;10.216;2023-04-03T10:10:39;1.90;;;0.77;;
13571;SDS011;6857;53.484;10.216;2023-04-03T10:13:16;1.33;;;0.63;;
13571;SDS011;6857;53.484;10.216;2023-04-03T10:15:45;3.03;;;0.90;;
13571;SDS011;6857;53.484;10.216;2023-04-03T10:18:27;2.00;;;0.90;;
13571;SDS011;6857;53.484;10.216;2023-04-03T10:20:57;2.20;;;0.73;;
13571;SDS011;6857;53.484;10.216;2023-04-03T10:28:31;3.57;;;1.10;;
13571;SDS011;6857;53.484;10.216;2023-04-03T10:33:50;7.40;;;1.37;;
13571;SDS011;6857;53.484;10.216;2023-04-03T10:36:24;4.10;;;1.07;;
13571;SDS011;6857;53.484;10.216;2023-04-03T10:54:20;5.00;;;0.93;;
13571;SDS011;6857;53.484;10.216;2023-04-03T10:56:54;3.53;;;0.90;;
13571;SDS011;6857;53.484;10.216;2023-04-03T10:59:37;3.47;;;1.10;;
13571;SDS011;6857;53.484;10.216;2023-04-03T11:04:51;2.30;;;1.20;;
13571;SDS011;6857;53.484;10.216;2023-04-03T11:07:19;2.93;;;0.80;;
13571;SDS011;6857;53.484;10.216;2023-04-03T11:09:47;3.23;;;1.03;;
13571;SDS011;6857;53.484;10.216;2023-04-03T11:12:27;1.10;;;0.60;;
13571;SDS011;6857;53.484;10.216;2023-04-03T11:14:55;2.70;;;0.87;;
13571;SDS011;6857;53.484;10.216;2023-04-03T11:19:59;3.73;;;1.03;;
13571;SDS011;6857;53.484;10.216;2023-04-03T11:24:57;1.67;;;0.67;;
13571;SDS011;6857;53.484;10.216;2023-04-03T11:27:25;2.03;;;0.80;;
13571;SDS011;6857;53.484;10.216;2023-04-03T11:29:52;1.90;;;0.80;;
13571;SDS011;6857;53.484;10.216;2023-04-03T11:34:45;2.13;;;0.87;;
13571;SDS011;6857;53.484;10.216;2023-04-03T11:37:16;3.33;;;0.77;;
13571;SDS011;6857;53.484;10.216;2023-04-03T11:39:47;2.43;;;1.07;;
13571;SDS011;6857;53.484;10.216;2023-04-03T11:44:41;1.27;;;0.70;;
13571;SDS011;6857;53.484;10.216;2023-04-03T11:47:08;1.57;;;1.00;;
13571;SDS011;6857;53.484;10.216;2023-04-03T11:49:56;4.07;;;1.07;;
13571;SDS011;6857;53.484;10.216;2023-04-03T12:14:12;2.80;;;1.00;;
13571;SDS011;6857;53.484;10.216;2023-04-03T12:29:10;4.23;;;1.00;;
13571;SDS011;6857;53.484;10.216;2023-04-03T12:31:42;2.27;;;0.80;;
13571;SDS011;6857;53.484;10.216;2023-04-03T12:34:15;3.63;;;1.33;;
13571;SDS011;6857;53.484;10.216;2023-04-03T12:36:50;3.13;;;1.03;;
13571;SDS011;6857;53.484;10.216;2023-04-03T12:42:03;2.17;;;1.17;;
13571;SDS011;6857;53.484;10.216;2023-04-03T12:44:35;1.53;;;0.83;;
13571;SDS011;6857;53.484;10.216;2023-04-03T12:47:08;3.27;;;1.10;;
13571;SDS011;6857;53.484;10.216;2023-04-03T12:49:42;2.97;;;1.10;;
13571;SDS011;6857;53.484;10.216;2023-04-03T12:52:52;3.83;;;0.93;;
13571;SDS011;6857;53.484;10.216;2023-04-03T12:54:59;3.23;;;1.40;;
13571;SDS011;6857;53.484;10.216;2023-04-03T12:57:29;1.93;;;0.93;;
13571;SDS011;6857;53.484;10.216;2023-04-03T12:59:55;2.57;;;0.80;;
13571;SDS011;6857;53.484;10.216;2023-04-03T13:02:27;2.13;;;1.00;;
13571;SDS011;6857;53.484;10.216;2023-04-03T13:04:54;2.53;;;0.80;;
13571;SDS011;6857;53.484;10.216;2023-04-03T13:07:24;3.03;;;0.90;;
13571;SDS011;6857;53.484;10.216;2023-04-03T13:10:24;2.10;;;0.70;;
13571;SDS011;6857;53.484;10.216;2023-04-03T13:12:56;2.47;;;0.90;;
13571;SDS011;6857;53.484;10.216;2023-04-03T13:15:27;1.67;;;0.70;;
13571;SDS011;6857;53.484;10.216;2023-04-03T13:17:53;2.90;;;0.80;;
13571;SDS011;6857;53.484;10.216;2023-04-03T13:20:22;2.23;;;0.90;;
13571;SDS011;6857;53.484;10.216;2023-04-03T13:22:53;6.10;;;1.37;;
13571;SDS011;6857;53.484;10.216;2023-04-03T13:25:21;2.93;;;1.10;;
13571;SDS011;6857;53.484;10.216;2023-04-03T13:27:48;2.73;;;0.57;;
13571;SDS011;6857;53.484;10.216;2023-04-03T13:30:53;3.60;;;0.93;;
13571;SDS011;6857;53.484;10.216;2023-04-03T13:33:19;4.93;;;0.93;;
13571;SDS011;6857;53.484;10.216;2023-04-03T13:35:46;2.00;;;0.80;;
13571;SDS011;6857;53.484;10.216;2023-04-03T13:40:58;2.50;;;1.37;;
13571;SDS011;6857;53.484;10.216;2023-04-03T13:43:30;2.10;;;0.83;;
13571;SDS011;6857;53.484;10.216;2023-04-03T13:45:58;1.60;;;0.60;;
13571;SDS011;6857;53.484;10.216;2023-04-03T13:48:25;1.90;;;1.10;;
13571;SDS011;6857;53.484;10.216;2023-04-03T13:50:53;3.77;;;1.30;;
13571;SDS011;6857;53.484;10.216;2023-04-03T13:53:19;2.20;;;0.90;;
13571;SDS011;6857;53.484;10.216;2023-04-03T13:58:25;1.93;;;0.80;;
13571;SDS011;6857;53.484;10.216;2023-04-03T14:03:43;1.27;;;0.80;;
13571;SDS011;6857;53.484;10.216;2023-04-03T14:06:11;2.70;;;1.00;;
13571;SDS011;6857;53.484;10.216;2023-04-03T14:08:37;5.70;;;3.40;;
13571;SDS011;6857;53.484;10.216;2023-04-03T14:11:03;4.03;;;3.00;;
13571;SDS011;6857;53.484;10.216;2023-04-03T14:13:29;3.20;;;1.73;;
13571;SDS011;6857;53.484;10.216;2023-04-03T14:15:55;2.63;;;1.40;;
13571;SDS011;6857;53.484;10.216;2023-04-03T14:18:21;2.53;;;1.37;;
13571;SDS011;6857;53.484;10.216;2023-04-03T14:20:48;2.77;;;1.17;;
13571;SDS011;6857;53.484;10.216;2023-04-03T14:23:14;3.60;;;1.00;;
13571;SDS011;6857;53.484;10.216;2023-04-03T14:25:41;1.70;;;0.90;;
13571;SDS011;6857;53.484;10.216;2023-04-03T14:28:15;2.00;;;0.97;;
13571;SDS011;6857;53.484;10.216;2023-04-03T14:30:41;1.53;;;0.77;;
13571;SDS011;6857;53.484;10.216;2023-04-03T14:33:09;2.57;;;0.90;;
13571;SDS011;6857;53.484;10.216;2023-04-03T14:35:36;2.00;;;1.20;;
13571;SDS011;6857;53.484;10.216;2023-04-03T14:38:02;2.53;;;0.93;;
13571;SDS011;6857;53.484;10.216;2023-04-03T14:40:31;2.67;;;1.00;;
13571;SDS011;6857;53.484;10.216;2023-04-03T14:42:57;5.80;;;1.40;;
13571;SDS011;6857;53.484;10.216;2023-04-03T14:45:24;1.90;;;0.93;;
13571;SDS011;6857;53.484;10.216;2023-04-03T14:47:52;1.73;;;0.90;;
13571;SDS011;6857;53.484;10.216;2023-04-03T14:50:20;3.13;;;1.30;;
13571;SDS011;6857;53.484;10.216;2023-04-03T14:52:46;1.80;;;0.90;;
13571;SDS011;6857;53.484;10.216;2023-04-03T14:55:14;2.73;;;1.03;;
13571;SDS011;6857;53.484;10.216;2023-04-03T14:57:40;1.40;;;0.80;;
13571;SDS011;6857;53.484;10.216;2023-04-03T15:00:07;4.20;;;1.30;;
13571;SDS011;6857;53.484;10.216;2023-04-03T15:02:35;2.03;;;1.10;;
13571;SDS011;6857;53.484;10.216;2023-04-03T15:05:03;2.00;;;1.00;;
13571;SDS011;6857;53.484;10.216;2023-04-03T15:07:30;2.10;;;1.00;;
13571;SDS011;6857;53.484;10.216;2023-04-03T15:09:59;1.93;;;0.90;;
13571;SDS011;6857;53.484;10.216;2023-04-03T15:12:27;2.03;;;1.00;;
13571;SDS011;6857;53.484;10.216;2023-04-03T15:14:53;3.00;;;0.63;;
13571;SDS011;6857;53.484;10.216;2023-04-03T15:17:20;2.80;;;1.10;;
13571;SDS011;6857;53.484;10.216;2023-04-03T15:19:47;1.27;;;0.97;;
13571;SDS011;6857;53.484;10.216;2023-04-03T15:22:16;2.87;;;0.80;;
13571;SDS011;6857;53.484;10.216;2023-04-03T15:24:44;2.07;;;0.90;;
13571;SDS011;6857;53.484;10.216;2023-04-03T15:27:10;2.47;;;1.10;;
13571;SDS011;6857;53.484;10.216;2023-04-03T15:29:37;1.60;;;1.00;;
13571;SDS011;6857;53.484;10.216;2023-04-03T15:32:03;1.17;;;1.00;;
13571;SDS011;6857;53.484;10.216;2023-04-03T15:34:29;1.90;;;0.90;;
13571;SDS011;6857;53.484;10.216;2023-04-03T15:36:56;1.77;;;1.00;;
13571;SDS011;6857;53.484;10.216;2023-04-03T15:39:22;2.10;;;0.87;;
13571;SDS011;6857;53.484;10.216;2023-04-03T15:41:48;3.23;;;1.07;;
13571;SDS011;6857;53.484;10.216;2023-04-03T15:44:14;5.87;;;1.70;;
13571;SDS011;6857;53.484;10.216;2023-04-03T15:46:42;3.20;;;1.30;;
13571;SDS011;6857;53.484;10.216;2023-04-03T15:49:09;1.90;;;0.93;;
13571;SDS011;6857;53.484;10.216;2023-04-03T15:51:35;5.07;;;2.13;;
13571;SDS011;6857;53.484;10.216;2023-04-03T15:54:01;2.73;;;1.37;;
13571;SDS011;6857;53.484;10.216;2023-04-03T15:56:27;4.63;;;1.00;;
13571;SDS011;6857;53.484;10.216;2023-04-03T15:58:53;3.63;;;1.80;;
13571;SDS011;6857;53.484;10.216;2023-04-03T16:01:18;1.80;;;1.07;;
13571;SDS011;6857;53.484;10.216;2023-04-03T16:03:44;2.07;;;1.00;;
13571;SDS011;6857;53.484;10.216;2023-04-03T16:06:14;3.07;;;1.40;;
13571;SDS011;6857;53.484;10.216;2023-04-03T16:08:41;3.67;;;2.13;;
13571;SDS011;6857;53.484;10.216;2023-04-03T16:11:07;1.87;;;1.20;;
13571;SDS011;6857;53.484;10.216;2023-04-03T16:13:33;3.47;;;1.30;;
13571;SDS011;6857;53.484;10.216;2023-04-03T16:16:00;4.90;;;1.60;;
13571;SDS011;6857;53.484;10.216;2023-04-03T16:18:26;2.17;;;1.20;;
13571;SDS011;6857;53.484;10.216;2023-04-03T16:20:52;2.43;;;1.03;;
13571;SDS011;6857;53.484;10.216;2023-04-03T16:23:18;3.37;;;1.27;;
13571;SDS011;6857;53.484;10.216;2023-04-03T16:25:44;3.57;;;1.00;;
13571;SDS011;6857;53.484;10.216;2023-04-03T16:28:12;3.17;;;1.10;;
13571;SDS011;6857;53.484;10.216;2023-04-03T16:30:39;3.10;;;1.30;;
13571;SDS011;6857;53.484;10.216;2023-04-03T16:33:05;2.57;;;1.17;;